RJTE(METAR)
04/28 17:00
METAR RJTE 280800Z 23009KT 180V270 9999 FEW030 18/07 Q1004 RMK
1CU030 A2968=
戻る
トップページへ戻る
IMOC Co,.Ltd.